sensor_id;sensor_type;location;lat;lon;timestamp;P1;durP1;ratioP1;P2;durP2;ratioP2
505;SDS011;551;48.524;9.056;2024-03-22T00:01:08;18.80;;;11.77;;
505;SDS011;551;48.524;9.056;2024-03-22T00:03:34;19.10;;;12.40;;
505;SDS011;551;48.524;9.056;2024-03-22T00:05:59;16.87;;;11.97;;
505;SDS011;551;48.524;9.056;2024-03-22T00:08:25;16.30;;;10.97;;
505;SDS011;551;48.524;9.056;2024-03-22T00:10:51;20.07;;;11.20;;
505;SDS011;551;48.524;9.056;2024-03-22T00:13:16;18.90;;;11.03;;
505;SDS011;551;48.524;9.056;2024-03-22T00:15:42;16.60;;;12.03;;
505;SDS011;551;48.524;9.056;2024-03-22T00:18:09;15.60;;;10.17;;
505;SDS011;551;48.524;9.056;2024-03-22T00:20:35;13.40;;;9.67;;
505;SDS011;551;48.524;9.056;2024-03-22T00:23:00;13.27;;;9.77;;
505;SDS011;551;48.524;9.056;2024-03-22T00:25:26;14.33;;;9.13;;
505;SDS011;551;48.524;9.056;2024-03-22T00:27:51;11.83;;;9.00;;
505;SDS011;551;48.524;9.056;2024-03-22T00:30:17;16.63;;;9.70;;
505;SDS011;551;48.524;9.056;2024-03-22T00:32:42;10.90;;;8.47;;
505;SDS011;551;48.524;9.056;2024-03-22T00:35:10;12.37;;;9.17;;
505;SDS011;551;48.524;9.056;2024-03-22T00:37:36;15.30;;;9.23;;
505;SDS011;551;48.524;9.056;2024-03-22T00:40:01;14.70;;;9.07;;
505;SDS011;551;48.524;9.056;2024-03-22T00:42:27;13.63;;;9.80;;
505;SDS011;551;48.524;9.056;2024-03-22T00:44:52;13.77;;;9.50;;
505;SDS011;551;48.524;9.056;2024-03-22T00:47:20;16.03;;;9.83;;
505;SDS011;551;48.524;9.056;2024-03-22T00:49:45;13.60;;;10.40;;
505;SDS011;551;48.524;9.056;2024-03-22T00:52:11;14.03;;;10.03;;
505;SDS011;551;48.524;9.056;2024-03-22T00:54:36;12.60;;;10.20;;
505;SDS011;551;48.524;9.056;2024-03-22T00:57:04;13.33;;;9.17;;
505;SDS011;551;48.524;9.056;2024-03-22T00:59:29;14.93;;;9.87;;
505;SDS011;551;48.524;9.056;2024-03-22T01:01:55;13.30;;;9.83;;
505;SDS011;551;48.524;9.056;2024-03-22T01:04:20;16.07;;;10.47;;
505;SDS011;551;48.524;9.056;2024-03-22T01:06:46;18.67;;;11.53;;
505;SDS011;551;48.524;9.056;2024-03-22T01:09:11;14.07;;;10.43;;
505;SDS011;551;48.524;9.056;2024-03-22T01:11:37;16.17;;;10.50;;
505;SDS011;551;48.524;9.056;2024-03-22T01:14:02;17.70;;;10.30;;
505;SDS011;551;48.524;9.056;2024-03-22T01:16:28;15.50;;;10.33;;
505;SDS011;551;48.524;9.056;2024-03-22T01:18:53;17.87;;;10.00;;
505;SDS011;551;48.524;9.056;2024-03-22T01:21:19;18.37;;;10.80;;
505;SDS011;551;48.524;9.056;2024-03-22T01:23:49;18.77;;;12.07;;
505;SDS011;551;48.524;9.056;2024-03-22T01:26:16;15.37;;;11.10;;
505;SDS011;551;48.524;9.056;2024-03-22T01:28:42;20.53;;;9.87;;
505;SDS011;551;48.524;9.056;2024-03-22T01:31:07;12.70;;;9.60;;
505;SDS011;551;48.524;9.056;2024-03-22T01:33:33;14.47;;;10.13;;
505;SDS011;551;48.524;9.056;2024-03-22T01:35:58;13.73;;;9.77;;
505;SDS011;551;48.524;9.056;2024-03-22T01:38:24;12.63;;;10.43;;
505;SDS011;551;48.524;9.056;2024-03-22T01:40:49;16.30;;;11.13;;
505;SDS011;551;48.524;9.056;2024-03-22T01:43:18;16.20;;;9.80;;
505;SDS011;551;48.524;9.056;2024-03-22T01:45:43;13.33;;;9.47;;
505;SDS011;551;48.524;9.056;2024-03-22T01:48:09;15.07;;;10.13;;
505;SDS011;551;48.524;9.056;2024-03-22T01:50:37;16.20;;;9.93;;
505;SDS011;551;48.524;9.056;2024-03-22T01:53:03;17.27;;;9.80;;
505;SDS011;551;48.524;9.056;2024-03-22T01:55:29;12.33;;;9.50;;
505;SDS011;551;48.524;9.056;2024-03-22T01:57:55;18.63;;;9.00;;
505;SDS011;551;48.524;9.056;2024-03-22T02:00:21;17.93;;;9.87;;
505;SDS011;551;48.524;9.056;2024-03-22T02:02:47;14.60;;;10.07;;
505;SDS011;551;48.524;9.056;2024-03-22T02:05:13;18.53;;;9.63;;
505;SDS011;551;48.524;9.056;2024-03-22T02:07:44;14.13;;;9.73;;
505;SDS011;551;48.524;9.056;2024-03-22T02:10:10;16.73;;;11.37;;
505;SDS011;551;48.524;9.056;2024-03-22T02:12:37;13.10;;;9.40;;
505;SDS011;551;48.524;9.056;2024-03-22T02:15:03;17.03;;;10.03;;
505;SDS011;551;48.524;9.056;2024-03-22T02:17:29;14.83;;;11.17;;
505;SDS011;551;48.524;9.056;2024-03-22T02:19:54;13.03;;;9.50;;
505;SDS011;551;48.524;9.056;2024-03-22T02:22:20;19.10;;;11.70;;
505;SDS011;551;48.524;9.056;2024-03-22T02:24:46;17.33;;;11.27;;
505;SDS011;551;48.524;9.056;2024-03-22T02:27:11;14.80;;;12.07;;
505;SDS011;551;48.524;9.056;2024-03-22T02:29:37;16.03;;;11.33;;
505;SDS011;551;48.524;9.056;2024-03-22T02:32:02;13.47;;;10.00;;
505;SDS011;551;48.524;9.056;2024-03-22T02:34:28;14.00;;;10.60;;
505;SDS011;551;48.524;9.056;2024-03-22T02:36:54;17.13;;;10.67;;
505;SDS011;551;48.524;9.056;2024-03-22T02:39:19;17.37;;;11.63;;
505;SDS011;551;48.524;9.056;2024-03-22T02:41:45;20.83;;;10.40;;
505;SDS011;551;48.524;9.056;2024-03-22T02:44:10;16.50;;;10.50;;
505;SDS011;551;48.524;9.056;2024-03-22T02:46:36;14.53;;;11.17;;
505;SDS011;551;48.524;9.056;2024-03-22T02:49:01;14.60;;;9.83;;
505;SDS011;551;48.524;9.056;2024-03-22T02:51:27;14.13;;;10.13;;
505;SDS011;551;48.524;9.056;2024-03-22T02:53:52;23.53;;;10.77;;
505;SDS011;551;48.524;9.056;2024-03-22T02:56:18;17.97;;;11.57;;
505;SDS011;551;48.524;9.056;2024-03-22T02:58:43;18.33;;;11.70;;
505;SDS011;551;48.524;9.056;2024-03-22T03:01:09;19.50;;;11.37;;
505;SDS011;551;48.524;9.056;2024-03-22T03:03:34;15.50;;;11.63;;
505;SDS011;551;48.524;9.056;2024-03-22T03:06:00;17.67;;;11.20;;
505;SDS011;551;48.524;9.056;2024-03-22T03:08:25;13.80;;;10.50;;
505;SDS011;551;48.524;9.056;2024-03-22T03:10:51;14.03;;;9.87;;
505;SDS011;551;48.524;9.056;2024-03-22T03:13:16;12.87;;;10.60;;
505;SDS011;551;48.524;9.056;2024-03-22T03:15:42;16.60;;;12.00;;
505;SDS011;551;48.524;9.056;2024-03-22T03:18:07;14.20;;;10.50;;
505;SDS011;551;48.524;9.056;2024-03-22T03:20:33;16.30;;;11.47;;
505;SDS011;551;48.524;9.056;2024-03-22T03:22:58;20.50;;;10.87;;
505;SDS011;551;48.524;9.056;2024-03-22T03:25:25;15.47;;;12.33;;
505;SDS011;551;48.524;9.056;2024-03-22T03:27:51;14.90;;;9.67;;
505;SDS011;551;48.524;9.056;2024-03-22T03:30:16;14.73;;;11.03;;
505;SDS011;551;48.524;9.056;2024-03-22T03:32:42;14.17;;;10.37;;
505;SDS011;551;48.524;9.056;2024-03-22T03:35:07;15.20;;;9.70;;
505;SDS011;551;48.524;9.056;2024-03-22T03:37:33;22.63;;;11.33;;
505;SDS011;551;48.524;9.056;2024-03-22T03:39:59;19.60;;;10.87;;
505;SDS011;551;48.524;9.056;2024-03-22T03:42:24;17.33;;;11.07;;
505;SDS011;551;48.524;9.056;2024-03-22T03:44:50;15.57;;;10.60;;
505;SDS011;551;48.524;9.056;2024-03-22T03:47:15;13.43;;;11.37;;
505;SDS011;551;48.524;9.056;2024-03-22T03:49:41;20.23;;;11.17;;
505;SDS011;551;48.524;9.056;2024-03-22T03:52:06;18.33;;;12.07;;
505;SDS011;551;48.524;9.056;2024-03-22T03:54:32;16.53;;;12.03;;
505;SDS011;551;48.524;9.056;2024-03-22T03:56:57;18.77;;;13.07;;
505;SDS011;551;48.524;9.056;2024-03-22T03:59:23;17.30;;;11.70;;
505;SDS011;551;48.524;9.056;2024-03-22T04:01:49;18.77;;;12.00;;
505;SDS011;551;48.524;9.056;2024-03-22T04:04:15;25.20;;;12.33;;
505;SDS011;551;48.524;9.056;2024-03-22T04:06:40;22.37;;;13.67;;
505;SDS011;551;48.524;9.056;2024-03-22T04:09:06;21.13;;;11.80;;
505;SDS011;551;48.524;9.056;2024-03-22T04:11:31;27.17;;;13.37;;
505;SDS011;551;48.524;9.056;2024-03-22T04:13:57;18.93;;;13.20;;
505;SDS011;551;48.524;9.056;2024-03-22T04:16:23;20.50;;;12.13;;
505;SDS011;551;48.524;9.056;2024-03-22T04:18:48;17.00;;;12.57;;
505;SDS011;551;48.524;9.056;2024-03-22T04:21:13;19.50;;;13.53;;
505;SDS011;551;48.524;9.056;2024-03-22T04:23:39;19.13;;;13.77;;
505;SDS011;551;48.524;9.056;2024-03-22T04:26:05;22.13;;;14.83;;
505;SDS011;551;48.524;9.056;2024-03-22T04:28:30;20.93;;;13.40;;
505;SDS011;551;48.524;9.056;2024-03-22T04:31:03;21.60;;;12.90;;
505;SDS011;551;48.524;9.056;2024-03-22T04:33:30;18.83;;;14.20;;
505;SDS011;551;48.524;9.056;2024-03-22T04:35:57;24.90;;;14.17;;
505;SDS011;551;48.524;9.056;2024-03-22T04:38:26;18.67;;;13.37;;
505;SDS011;551;48.524;9.056;2024-03-22T04:40:52;22.00;;;13.07;;
505;SDS011;551;48.524;9.056;2024-03-22T04:43:18;17.50;;;12.83;;
505;SDS011;551;48.524;9.056;2024-03-22T04:45:44;18.43;;;12.73;;
505;SDS011;551;48.524;9.056;2024-03-22T04:48:12;21.63;;;13.63;;
505;SDS011;551;48.524;9.056;2024-03-22T04:50:39;23.03;;;13.73;;
505;SDS011;551;48.524;9.056;2024-03-22T04:53:04;19.87;;;12.63;;
505;SDS011;551;48.524;9.056;2024-03-22T04:55:30;22.80;;;13.10;;
505;SDS011;551;48.524;9.056;2024-03-22T04:57:57;21.10;;;13.53;;
505;SDS011;551;48.524;9.056;2024-03-22T05:00:23;21.50;;;14.70;;
505;SDS011;551;48.524;9.056;2024-03-22T05:02:50;18.47;;;12.33;;
505;SDS011;551;48.524;9.056;2024-03-22T05:05:18;17.90;;;12.10;;
505;SDS011;551;48.524;9.056;2024-03-22T05:07:44;21.13;;;12.77;;
505;SDS011;551;48.524;9.056;2024-03-22T05:10:10;20.90;;;13.50;;
505;SDS011;551;48.524;9.056;2024-03-22T05:12:38;17.17;;;12.20;;
505;SDS011;551;48.524;9.056;2024-03-22T05:15:04;16.03;;;11.83;;
505;SDS011;551;48.524;9.056;2024-03-22T05:17:31;41.40;;;14.13;;
505;SDS011;551;48.524;9.056;2024-03-22T05:19:57;21.27;;;12.50;;
505;SDS011;551;48.524;9.056;2024-03-22T05:22:23;22.40;;;12.93;;
505;SDS011;551;48.524;9.056;2024-03-22T05:24:49;21.23;;;12.80;;
505;SDS011;551;48.524;9.056;2024-03-22T05:27:14;21.47;;;11.07;;
505;SDS011;551;48.524;9.056;2024-03-22T05:29:40;14.60;;;11.90;;
505;SDS011;551;48.524;9.056;2024-03-22T05:32:05;21.80;;;13.37;;
505;SDS011;551;48.524;9.056;2024-03-22T05:34:31;17.33;;;12.10;;
505;SDS011;551;48.524;9.056;2024-03-22T05:36:56;19.00;;;11.07;;
505;SDS011;551;48.524;9.056;2024-03-22T05:39:22;20.77;;;12.10;;
505;SDS011;551;48.524;9.056;2024-03-22T05:41:47;14.87;;;9.47;;
505;SDS011;551;48.524;9.056;2024-03-22T05:44:13;24.53;;;11.17;;
505;SDS011;551;48.524;9.056;2024-03-22T05:46:38;15.83;;;8.90;;
505;SDS011;551;48.524;9.056;2024-03-22T05:49:04;11.93;;;9.00;;
505;SDS011;551;48.524;9.056;2024-03-22T05:51:29;18.47;;;10.27;;
505;SDS011;551;48.524;9.056;2024-03-22T05:53:55;14.57;;;9.00;;
505;SDS011;551;48.524;9.056;2024-03-22T05:56:21;15.30;;;9.30;;
505;SDS011;551;48.524;9.056;2024-03-22T05:58:47;16.60;;;9.23;;
505;SDS011;551;48.524;9.056;2024-03-22T06:01:12;13.00;;;9.67;;
505;SDS011;551;48.524;9.056;2024-03-22T06:03:38;24.93;;;11.00;;
505;SDS011;551;48.524;9.056;2024-03-22T06:06:04;12.07;;;9.30;;
505;SDS011;551;48.524;9.056;2024-03-22T06:08:30;13.90;;;8.93;;
505;SDS011;551;48.524;9.056;2024-03-22T06:10:59;14.33;;;9.03;;
505;SDS011;551;48.524;9.056;2024-03-22T06:13:24;17.53;;;10.03;;
505;SDS011;551;48.524;9.056;2024-03-22T06:15:50;15.33;;;9.37;;
505;SDS011;551;48.524;9.056;2024-03-22T06:18:16;13.37;;;10.07;;
505;SDS011;551;48.524;9.056;2024-03-22T06:20:41;13.13;;;10.13;;
505;SDS011;551;48.524;9.056;2024-03-22T06:23:08;14.17;;;10.27;;
505;SDS011;551;48.524;9.056;2024-03-22T06:25:34;12.50;;;9.60;;
505;SDS011;551;48.524;9.056;2024-03-22T06:28:00;15.00;;;10.33;;
505;SDS011;551;48.524;9.056;2024-03-22T06:30:25;12.50;;;10.00;;
505;SDS011;551;48.524;9.056;2024-03-22T06:32:52;16.00;;;10.00;;
505;SDS011;551;48.524;9.056;2024-03-22T06:35:18;14.17;;;10.23;;
505;SDS011;551;48.524;9.056;2024-03-22T06:37:43;15.30;;;10.23;;
505;SDS011;551;48.524;9.056;2024-03-22T06:40:09;15.23;;;9.83;;
505;SDS011;551;48.524;9.056;2024-03-22T06:42:35;15.90;;;10.30;;
505;SDS011;551;48.524;9.056;2024-03-22T06:45:01;11.33;;;9.30;;
505;SDS011;551;48.524;9.056;2024-03-22T06:47:27;14.00;;;8.97;;
505;SDS011;551;48.524;9.056;2024-03-22T06:49:53;12.40;;;9.03;;
505;SDS011;551;48.524;9.056;2024-03-22T06:52:18;15.83;;;9.80;;
505;SDS011;551;48.524;9.056;2024-03-22T06:54:45;11.30;;;9.17;;
505;SDS011;551;48.524;9.056;2024-03-22T06:57:10;12.40;;;8.70;;
505;SDS011;551;48.524;9.056;2024-03-22T06:59:36;13.40;;;8.90;;
505;SDS011;551;48.524;9.056;2024-03-22T07:02:01;11.53;;;9.37;;
505;SDS011;551;48.524;9.056;2024-03-22T07:04:27;20.23;;;10.00;;
505;SDS011;551;48.524;9.056;2024-03-22T07:06:53;15.10;;;9.70;;
505;SDS011;551;48.524;9.056;2024-03-22T07:09:18;19.40;;;11.07;;
505;SDS011;551;48.524;9.056;2024-03-22T07:11:44;13.87;;;10.33;;
505;SDS011;551;48.524;9.056;2024-03-22T07:14:09;11.10;;;8.90;;
505;SDS011;551;48.524;9.056;2024-03-22T07:16:35;11.97;;;9.60;;
505;SDS011;551;48.524;9.056;2024-03-22T07:19:02;14.03;;;9.93;;
505;SDS011;551;48.524;9.056;2024-03-22T07:21:28;12.37;;;10.07;;
505;SDS011;551;48.524;9.056;2024-03-22T07:23:54;13.63;;;10.17;;
505;SDS011;551;48.524;9.056;2024-03-22T07:26:19;15.43;;;9.90;;
505;SDS011;551;48.524;9.056;2024-03-22T07:28:45;13.70;;;10.07;;
505;SDS011;551;48.524;9.056;2024-03-22T07:31:10;19.20;;;10.90;;
505;SDS011;551;48.524;9.056;2024-03-22T07:33:36;13.87;;;8.93;;
505;SDS011;551;48.524;9.056;2024-03-22T07:36:02;10.97;;;9.80;;
505;SDS011;551;48.524;9.056;2024-03-22T07:38:28;11.63;;;9.10;;
505;SDS011;551;48.524;9.056;2024-03-22T07:40:54;10.10;;;8.50;;
505;SDS011;551;48.524;9.056;2024-03-22T07:43:19;10.67;;;8.97;;
505;SDS011;551;48.524;9.056;2024-03-22T07:45:45;13.50;;;8.80;;
505;SDS011;551;48.524;9.056;2024-03-22T07:48:10;9.53;;;8.63;;
505;SDS011;551;48.524;9.056;2024-03-22T07:50:36;9.07;;;8.10;;
505;SDS011;551;48.524;9.056;2024-03-22T07:53:02;14.30;;;8.70;;
505;SDS011;551;48.524;9.056;2024-03-22T07:55:27;10.33;;;8.30;;
505;SDS011;551;48.524;9.056;2024-03-22T07:57:53;8.37;;;7.57;;
505;SDS011;551;48.524;9.056;2024-03-22T08:00:18;9.20;;;8.30;;
505;SDS011;551;48.524;9.056;2024-03-22T08:02:44;15.73;;;8.77;;
505;SDS011;551;48.524;9.056;2024-03-22T08:05:09;9.93;;;8.83;;
505;SDS011;551;48.524;9.056;2024-03-22T08:07:35;9.20;;;8.30;;
505;SDS011;551;48.524;9.056;2024-03-22T08:10:01;9.90;;;8.50;;
505;SDS011;551;48.524;9.056;2024-03-22T08:12:27;9.47;;;8.47;;
505;SDS011;551;48.524;9.056;2024-03-22T08:14:53;11.47;;;8.97;;
505;SDS011;551;48.524;9.056;2024-03-22T08:17:18;9.30;;;8.40;;
505;SDS011;551;48.524;9.056;2024-03-22T08:19:44;10.70;;;9.00;;
505;SDS011;551;48.524;9.056;2024-03-22T08:22:10;8.70;;;7.90;;
505;SDS011;551;48.524;9.056;2024-03-22T08:24:36;9.50;;;8.57;;
505;SDS011;551;48.524;9.056;2024-03-22T08:27:02;8.30;;;7.10;;
505;SDS011;551;48.524;9.056;2024-03-22T08:29:28;9.37;;;8.30;;
505;SDS011;551;48.524;9.056;2024-03-22T08:31:54;9.63;;;7.83;;
505;SDS011;551;48.524;9.056;2024-03-22T08:34:20;8.93;;;7.97;;
505;SDS011;551;48.524;9.056;2024-03-22T08:36:46;11.87;;;8.67;;
505;SDS011;551;48.524;9.056;2024-03-22T08:39:12;11.23;;;8.50;;
505;SDS011;551;48.524;9.056;2024-03-22T08:41:37;9.27;;;8.37;;
505;SDS011;551;48.524;9.056;2024-03-22T08:44:03;10.40;;;9.10;;
505;SDS011;551;48.524;9.056;2024-03-22T08:46:29;10.10;;;8.90;;
505;SDS011;551;48.524;9.056;2024-03-22T08:48:54;8.20;;;7.43;;
505;SDS011;551;48.524;9.056;2024-03-22T08:51:20;10.20;;;8.10;;
505;SDS011;551;48.524;9.056;2024-03-22T08:53:46;10.50;;;8.43;;
505;SDS011;551;48.524;9.056;2024-03-22T08:56:12;12.37;;;8.80;;
505;SDS011;551;48.524;9.056;2024-03-22T08:58:37;10.13;;;8.50;;
505;SDS011;551;48.524;9.056;2024-03-22T09:01:03;8.97;;;8.10;;
505;SDS011;551;48.524;9.056;2024-03-22T09:03:32;9.47;;;8.47;;
505;SDS011;551;48.524;9.056;2024-03-22T09:05:57;9.10;;;8.10;;
505;SDS011;551;48.524;9.056;2024-03-22T09:08:23;10.83;;;8.80;;
505;SDS011;551;48.524;9.056;2024-03-22T09:10:48;10.63;;;8.20;;
505;SDS011;551;48.524;9.056;2024-03-22T09:13:14;9.03;;;8.13;;
505;SDS011;551;48.524;9.056;2024-03-22T09:15:39;9.80;;;8.57;;
505;SDS011;551;48.524;9.056;2024-03-22T09:18:05;8.50;;;7.80;;
505;SDS011;551;48.524;9.056;2024-03-22T09:20:31;9.10;;;7.73;;
505;SDS011;551;48.524;9.056;2024-03-22T09:22:57;10.43;;;8.37;;
505;SDS011;551;48.524;9.056;2024-03-22T09:25:25;9.07;;;8.17;;
505;SDS011;551;48.524;9.056;2024-03-22T09:27:52;10.67;;;8.20;;
505;SDS011;551;48.524;9.056;2024-03-22T09:30:17;8.83;;;8.03;;
505;SDS011;551;48.524;9.056;2024-03-22T09:32:43;13.40;;;8.50;;
505;SDS011;551;48.524;9.056;2024-03-22T09:35:09;8.20;;;7.03;;
505;SDS011;551;48.524;9.056;2024-03-22T09:37:35;9.33;;;7.90;;
505;SDS011;551;48.524;9.056;2024-03-22T09:40:01;7.90;;;7.13;;
505;SDS011;551;48.524;9.056;2024-03-22T09:42:32;9.00;;;8.10;;
505;SDS011;551;48.524;9.056;2024-03-22T09:44:58;8.67;;;7.77;;
505;SDS011;551;48.524;9.056;2024-03-22T09:47:24;11.20;;;8.57;;
505;SDS011;551;48.524;9.056;2024-03-22T09:49:51;9.70;;;8.73;;
505;SDS011;551;48.524;9.056;2024-03-22T09:52:18;11.73;;;8.03;;
505;SDS011;551;48.524;9.056;2024-03-22T09:54:48;8.53;;;7.70;;
505;SDS011;551;48.524;9.056;2024-03-22T09:57:14;8.97;;;6.83;;
505;SDS011;551;48.524;9.056;2024-03-22T09:59:43;9.87;;;7.77;;
505;SDS011;551;48.524;9.056;2024-03-22T10:02:11;7.63;;;6.90;;
505;SDS011;551;48.524;9.056;2024-03-22T10:04:40;7.80;;;7.00;;
505;SDS011;551;48.524;9.056;2024-03-22T10:07:06;9.13;;;7.10;;
505;SDS011;551;48.524;9.056;2024-03-22T10:09:34;8.40;;;6.70;;
505;SDS011;551;48.524;9.056;2024-03-22T10:12:00;11.57;;;6.50;;
505;SDS011;551;48.524;9.056;2024-03-22T10:14:25;10.40;;;6.57;;
505;SDS011;551;48.524;9.056;2024-03-22T10:16:51;7.90;;;6.47;;
505;SDS011;551;48.524;9.056;2024-03-22T10:19:21;7.70;;;7.00;;
505;SDS011;551;48.524;9.056;2024-03-22T10:21:47;10.70;;;7.63;;
505;SDS011;551;48.524;9.056;2024-03-22T10:24:24;7.77;;;6.90;;
505;SDS011;551;48.524;9.056;2024-03-22T10:26:49;9.80;;;7.07;;
505;SDS011;551;48.524;9.056;2024-03-22T10:29:15;7.50;;;6.60;;
505;SDS011;551;48.524;9.056;2024-03-22T10:34:07;8.90;;;6.30;;
505;SDS011;551;48.524;9.056;2024-03-22T10:36:34;9.90;;;6.37;;
505;SDS011;551;48.524;9.056;2024-03-22T10:39:00;8.20;;;6.90;;
505;SDS011;551;48.524;9.056;2024-03-22T10:41:26;8.10;;;6.87;;
505;SDS011;551;48.524;9.056;2024-03-22T10:43:52;12.33;;;7.13;;
505;SDS011;551;48.524;9.056;2024-03-22T10:46:20;12.10;;;6.60;;
505;SDS011;551;48.524;9.056;2024-03-22T10:48:45;9.60;;;7.27;;
505;SDS011;551;48.524;9.056;2024-03-22T10:51:13;8.30;;;6.23;;
505;SDS011;551;48.524;9.056;2024-03-22T10:53:40;8.97;;;5.90;;
505;SDS011;551;48.524;9.056;2024-03-22T10:56:07;8.13;;;6.33;;
505;SDS011;551;48.524;9.056;2024-03-22T10:58:34;7.03;;;5.83;;
505;SDS011;551;48.524;9.056;2024-03-22T11:01:05;6.77;;;5.80;;
505;SDS011;551;48.524;9.056;2024-03-22T11:03:31;6.93;;;4.70;;
505;SDS011;551;48.524;9.056;2024-03-22T11:05:58;6.40;;;5.60;;
505;SDS011;551;48.524;9.056;2024-03-22T11:08:24;7.50;;;5.80;;
505;SDS011;551;48.524;9.056;2024-03-22T11:10:49;9.77;;;5.10;;
505;SDS011;551;48.524;9.056;2024-03-22T11:13:16;5.53;;;5.03;;
505;SDS011;551;48.524;9.056;2024-03-22T11:15:42;10.63;;;6.37;;
505;SDS011;551;48.524;9.056;2024-03-22T11:18:08;6.47;;;5.00;;
505;SDS011;551;48.524;9.056;2024-03-22T11:20:37;5.77;;;5.20;;
505;SDS011;551;48.524;9.056;2024-03-22T11:23:05;6.20;;;5.60;;
505;SDS011;551;48.524;9.056;2024-03-22T11:25:32;7.60;;;6.50;;
505;SDS011;551;48.524;9.056;2024-03-22T11:27:58;7.60;;;5.43;;
505;SDS011;551;48.524;9.056;2024-03-22T11:30:26;8.20;;;5.47;;
505;SDS011;551;48.524;9.056;2024-03-22T11:32:53;6.60;;;5.93;;
505;SDS011;551;48.524;9.056;2024-03-22T11:35:19;7.20;;;5.43;;
505;SDS011;551;48.524;9.056;2024-03-22T11:37:44;10.53;;;5.83;;
505;SDS011;551;48.524;9.056;2024-03-22T11:40:13;6.37;;;4.60;;
505;SDS011;551;48.524;9.056;2024-03-22T11:42:39;6.60;;;5.40;;
505;SDS011;551;48.524;9.056;2024-03-22T11:45:06;7.20;;;5.63;;
505;SDS011;551;48.524;9.056;2024-03-22T11:47:35;10.10;;;6.30;;
505;SDS011;551;48.524;9.056;2024-03-22T11:50:01;5.90;;;5.17;;
505;SDS011;551;48.524;9.056;2024-03-22T11:52:27;5.57;;;4.23;;
505;SDS011;551;48.524;9.056;2024-03-22T11:54:52;5.23;;;4.50;;
505;SDS011;551;48.524;9.056;2024-03-22T11:57:18;6.23;;;5.73;;
505;SDS011;551;48.524;9.056;2024-03-22T11:59:48;6.33;;;5.40;;
505;SDS011;551;48.524;9.056;2024-03-22T12:02:13;6.90;;;5.37;;
505;SDS011;551;48.524;9.056;2024-03-22T12:04:43;4.50;;;4.10;;
505;SDS011;551;48.524;9.056;2024-03-22T12:07:16;5.57;;;4.53;;
505;SDS011;551;48.524;9.056;2024-03-22T12:09:42;5.23;;;3.10;;
505;SDS011;551;48.524;9.056;2024-03-22T12:12:09;5.13;;;4.17;;
505;SDS011;551;48.524;9.056;2024-03-22T12:14:36;4.53;;;3.70;;
505;SDS011;551;48.524;9.056;2024-03-22T12:17:02;4.10;;;3.20;;
505;SDS011;551;48.524;9.056;2024-03-22T12:19:28;7.13;;;3.77;;
505;SDS011;551;48.524;9.056;2024-03-22T12:21:54;4.63;;;3.40;;
505;SDS011;551;48.524;9.056;2024-03-22T12:24:20;4.00;;;3.60;;
505;SDS011;551;48.524;9.056;2024-03-22T12:26:46;3.90;;;3.13;;
505;SDS011;551;48.524;9.056;2024-03-22T12:29:12;4.27;;;3.40;;
505;SDS011;551;48.524;9.056;2024-03-22T12:31:38;4.07;;;3.77;;
505;SDS011;551;48.524;9.056;2024-03-22T12:34:04;3.77;;;3.47;;
505;SDS011;551;48.524;9.056;2024-03-22T12:36:29;8.33;;;3.50;;
505;SDS011;551;48.524;9.056;2024-03-22T12:38:55;4.00;;;3.50;;
505;SDS011;551;48.524;9.056;2024-03-22T12:41:20;4.60;;;3.57;;
505;SDS011;551;48.524;9.056;2024-03-22T12:43:46;4.13;;;2.50;;
505;SDS011;551;48.524;9.056;2024-03-22T12:46:11;3.47;;;3.17;;
505;SDS011;551;48.524;9.056;2024-03-22T12:48:37;2.83;;;2.63;;
505;SDS011;551;48.524;9.056;2024-03-22T12:51:03;6.60;;;3.00;;
505;SDS011;551;48.524;9.056;2024-03-22T12:53:28;4.67;;;3.23;;
505;SDS011;551;48.524;9.056;2024-03-22T12:55:54;3.27;;;2.97;;
505;SDS011;551;48.524;9.056;2024-03-22T12:58:19;6.03;;;3.20;;
505;SDS011;551;48.524;9.056;2024-03-22T13:00:45;8.20;;;3.27;;
505;SDS011;551;48.524;9.056;2024-03-22T13:03:11;4.68;;;3.22;;
505;SDS011;551;48.524;9.056;2024-03-22T13:05:38;2.87;;;2.60;;
505;SDS011;551;48.524;9.056;2024-03-22T13:08:04;2.50;;;2.30;;
505;SDS011;551;48.524;9.056;2024-03-22T13:10:30;2.60;;;2.40;;
505;SDS011;551;48.524;9.056;2024-03-22T13:12:55;4.67;;;3.10;;
505;SDS011;551;48.524;9.056;2024-03-22T13:15:21;4.03;;;2.80;;
505;SDS011;551;48.524;9.056;2024-03-22T13:17:47;3.87;;;2.70;;
505;SDS011;551;48.524;9.056;2024-03-22T13:20:13;4.53;;;2.40;;
505;SDS011;551;48.524;9.056;2024-03-22T13:22:40;3.07;;;2.77;;
505;SDS011;551;48.524;9.056;2024-03-22T13:25:06;8.40;;;3.43;;
505;SDS011;551;48.524;9.056;2024-03-22T13:27:34;2.63;;;2.43;;
505;SDS011;551;48.524;9.056;2024-03-22T13:30:00;2.60;;;2.10;;
505;SDS011;551;48.524;9.056;2024-03-22T13:32:28;2.90;;;2.17;;
505;SDS011;551;48.524;9.056;2024-03-22T13:34:54;3.20;;;2.23;;
505;SDS011;551;48.524;9.056;2024-03-22T13:37:19;5.23;;;2.80;;
505;SDS011;551;48.524;9.056;2024-03-22T13:39:51;4.50;;;3.20;;
505;SDS011;551;48.524;9.056;2024-03-22T13:42:16;3.87;;;2.63;;
505;SDS011;551;48.524;9.056;2024-03-22T13:44:42;3.40;;;2.77;;
505;SDS011;551;48.524;9.056;2024-03-22T13:47:08;3.13;;;2.40;;
505;SDS011;551;48.524;9.056;2024-03-22T13:49:33;2.17;;;1.97;;
505;SDS011;551;48.524;9.056;2024-03-22T13:51:59;3.80;;;2.10;;
505;SDS011;551;48.524;9.056;2024-03-22T13:54:25;2.57;;;2.30;;
505;SDS011;551;48.524;9.056;2024-03-22T13:56:50;4.97;;;2.47;;
505;SDS011;551;48.524;9.056;2024-03-22T13:59:16;2.80;;;2.43;;
505;SDS011;551;48.524;9.056;2024-03-22T14:01:42;2.53;;;2.33;;
505;SDS011;551;48.524;9.056;2024-03-22T14:04:10;2.53;;;2.33;;
505;SDS011;551;48.524;9.056;2024-03-22T14:06:36;2.50;;;2.30;;
505;SDS011;551;48.524;9.056;2024-03-22T14:09:03;4.10;;;2.10;;
505;SDS011;551;48.524;9.056;2024-03-22T14:11:30;2.80;;;2.20;;
505;SDS011;551;48.524;9.056;2024-03-22T14:13:58;3.00;;;2.57;;
505;SDS011;551;48.524;9.056;2024-03-22T14:16:24;2.73;;;2.07;;
505;SDS011;551;48.524;9.056;2024-03-22T14:18:50;3.10;;;2.17;;
505;SDS011;551;48.524;9.056;2024-03-22T14:21:17;3.40;;;2.37;;
505;SDS011;551;48.524;9.056;2024-03-22T14:23:46;3.30;;;2.20;;
505;SDS011;551;48.524;9.056;2024-03-22T14:26:12;2.70;;;2.30;;
505;SDS011;551;48.524;9.056;2024-03-22T14:28:38;4.17;;;2.13;;
505;SDS011;551;48.524;9.056;2024-03-22T14:31:05;3.53;;;2.00;;
505;SDS011;551;48.524;9.056;2024-03-22T14:33:35;2.90;;;2.10;;
505;SDS011;551;48.524;9.056;2024-03-22T14:36:01;2.30;;;1.97;;
505;SDS011;551;48.524;9.056;2024-03-22T14:38:31;2.27;;;1.80;;
505;SDS011;551;48.524;9.056;2024-03-22T14:40:57;1.90;;;1.70;;
505;SDS011;551;48.524;9.056;2024-03-22T14:43:23;4.00;;;2.10;;
505;SDS011;551;48.524;9.056;2024-03-22T14:45:50;2.87;;;2.60;;
505;SDS011;551;48.524;9.056;2024-03-22T14:48:17;3.50;;;1.50;;
505;SDS011;551;48.524;9.056;2024-03-22T14:50:44;1.60;;;1.50;;
505;SDS011;551;48.524;9.056;2024-03-22T14:53:09;1.63;;;1.50;;
505;SDS011;551;48.524;9.056;2024-03-22T14:55:36;1.97;;;1.73;;
505;SDS011;551;48.524;9.056;2024-03-22T14:58:02;2.30;;;2.07;;
505;SDS011;551;48.524;9.056;2024-03-22T15:00:28;1.87;;;1.70;;
505;SDS011;551;48.524;9.056;2024-03-22T15:02:54;3.83;;;2.60;;
505;SDS011;551;48.524;9.056;2024-03-22T15:05:19;2.00;;;1.80;;
505;SDS011;551;48.524;9.056;2024-03-22T15:07:45;3.27;;;2.03;;
505;SDS011;551;48.524;9.056;2024-03-22T15:10:10;2.30;;;1.97;;
505;SDS011;551;48.524;9.056;2024-03-22T15:12:36;2.10;;;1.90;;
505;SDS011;551;48.524;9.056;2024-03-22T15:15:02;3.93;;;2.00;;
505;SDS011;551;48.524;9.056;2024-03-22T15:17:28;4.13;;;1.70;;
505;SDS011;551;48.524;9.056;2024-03-22T15:19:54;4.27;;;1.87;;
505;SDS011;551;48.524;9.056;2024-03-22T15:22:20;3.07;;;1.63;;
505;SDS011;551;48.524;9.056;2024-03-22T15:24:47;1.80;;;1.70;;
505;SDS011;551;48.524;9.056;2024-03-22T15:27:13;1.70;;;1.60;;